Time;durP1;ratioP1;P1;durP2;ratioP2;P2;SDS_P1;SDS_P2;PMS_P1;PMS_P2;Temp;Humidity;BMP_temperature;BMP_pressure;BME280_temperature;BME280_humidity;BME280_pressure;Samples;Min_cycle;Max_cycle;Signal;HPM_P1;HPM_P2
2022/12/21 00:00:51;;;;;;;7.25;4.95;;;;;;;-2.16;86.79;95638.25;5019144;28;20204;-81
2022/12/21 00:03:18;;;;;;;7.70;4.53;;;;;;;-2.14;85.51;95638.03;5031694;28;20224;-79
2022/12/21 00:05:45;;;;;;;7.80;4.80;;;;;;;-2.17;86.13;95647.25;5012564;28;20742;-80
2022/12/21 00:08:13;;;;;;;6.50;3.53;;;;;;;-2.15;86.67;95639.88;5025309;28;20208;-80
2022/12/21 00:10:40;;;;;;;7.70;3.28;;;;;;;-2.07;86.12;95636.13;5019479;28;20204;-80
2022/12/21 00:13:07;;;;;;;8.70;4.15;;;;;;;-2.12;86.03;95632.53;5017119;28;20258;-81
2022/12/21 00:15:34;;;;;;;9.32;6.05;;;;;;;-1.98;86.50;95636.63;5019851;28;20224;-80
2022/12/21 00:18:01;;;;;;;10.38;3.45;;;;;;;-2.03;86.48;95641.78;5030334;28;20261;-81
2022/12/21 00:20:27;;;;;;;9.68;4.28;;;;;;;-2.10;86.24;95636.56;5020186;28;20200;-81
2022/12/21 00:22:54;;;;;;;4.93;2.63;;;;;;;-2.09;86.50;95632.09;5018513;28;20602;-83
2022/12/21 00:25:22;;;;;;;9.05;4.03;;;;;;;-2.07;86.27;95638.78;5023376;28;20271;-80
2022/12/21 00:27:49;;;;;;;4.53;3.33;;;;;;;-2.13;86.47;95636.22;5025430;28;20258;-81
2022/12/21 00:30:16;;;;;;;3.85;2.33;;;;;;;-2.22;87.73;95631.22;5021085;28;20200;-81
2022/12/21 00:32:43;;;;;;;9.63;3.13;;;;;;;-2.19;87.42;95633.41;5015457;28;20255;-81
2022/12/21 00:35:10;;;;;;;39.00;16.10;;;;;;;-2.17;86.71;95631.34;5020860;28;20204;-80
2022/12/21 00:37:36;;;;;;;31.48;15.02;;;;;;;-2.31;86.90;95619.25;5018262;28;20208;-82
2022/12/21 00:40:04;;;;;;;38.22;14.88;;;;;;;-2.29;87.46;95633.13;5021935;28;20259;-81
2022/12/21 00:42:35;;;;;;;33.50;14.85;;;;;;;-2.26;87.35;95621.25;5011298;28;20207;-80
2022/12/21 00:45:01;;;;;;;31.90;14.13;;;;;;;-2.30;86.94;95626.19;5021789;28;20311;-80
2022/12/21 00:47:28;;;;;;;11.05;3.47;;;;;;;-2.37;87.40;95616.72;5018226;28;20969;-81
2022/12/21 00:49:55;;;;;;;12.70;3.28;;;;;;;-2.40;88.02;95619.78;5030518;28;20622;-80
2022/12/21 00:52:21;;;;;;;4.05;2.88;;;;;;;-2.33;87.67;95616.06;5017991;28;20219;-80
2022/12/21 00:54:48;;;;;;;8.85;3.88;;;;;;;-2.35;87.84;95602.19;5031150;28;20227;-81
2022/12/21 00:57:15;;;;;;;6.90;4.10;;;;;;;-2.31;87.26;95602.53;5031610;28;20693;-81
2022/12/21 00:59:43;;;;;;;6.53;4.22;;;;;;;-2.42;87.77;95590.84;5030447;28;20205;-81
2022/12/21 01:02:10;;;;;;;8.93;5.70;;;;;;;-2.26;88.15;95595.53;5017059;28;20671;-80
2022/12/21 01:04:37;;;;;;;5.93;3.00;;;;;;;-2.21;87.11;95593.03;5019382;28;20232;-81
2022/12/21 01:07:05;;;;;;;5.50;3.67;;;;;;;-2.27;87.30;95588.59;5015179;28;20212;-82
2022/12/21 01:09:34;;;;;;;6.82;3.17;;;;;;;-2.28;87.04;95580.88;5031494;28;21017;-81
2022/12/21 01:12:01;;;;;;;4.38;3.83;;;;;;;-2.20;86.89;95585.88;5012723;28;20254;-81
2022/12/21 01:14:27;;;;;;;5.18;3.45;;;;;;;-2.37;87.68;95588.34;5010955;28;20212;-81
2022/12/21 01:16:56;;;;;;;7.50;3.67;;;;;;;-2.24;87.60;95593.47;5024176;28;20202;-81
2022/12/21 01:19:22;;;;;;;2.55;2.15;;;;;;;-2.19;87.86;95585.63;5010624;28;20355;-81
2022/12/21 01:21:49;;;;;;;4.38;2.13;;;;;;;-2.06;88.07;95589.97;5024042;28;20229;-80
2022/12/21 01:24:16;;;;;;;6.40;3.08;;;;;;;-2.22;87.98;95599.38;5022743;28;20294;-81
2022/12/21 01:26:44;;;;;;;8.02;3.00;;;;;;;-2.28;88.99;95586.19;5026460;28;20205;-82
2022/12/21 01:29:13;;;;;;;13.02;2.65;;;;;;;-2.29;87.51;95585.38;5023751;28;20314;-80
2022/12/21 01:31:40;;;;;;;7.72;4.45;;;;;;;-2.31;87.58;95592.72;5017044;28;20254;-80
2022/12/21 01:34:09;;;;;;;5.18;2.75;;;;;;;-2.36;87.90;95587.31;5017755;28;20212;-81
2022/12/21 01:36:36;;;;;;;6.93;3.75;;;;;;;-2.30;87.73;95581.09;5023526;28;20208;-81
2022/12/21 01:39:03;;;;;;;5.35;3.47;;;;;;;-2.24;87.19;95596.13;5010350;28;20239;-81
2022/12/21 01:41:31;;;;;;;4.88;3.30;;;;;;;-2.28;87.23;95586.19;5023211;28;20206;-81
2022/12/21 01:43:59;;;;;;;3.35;2.40;;;;;;;-2.31;87.65;95576.81;5023856;28;20232;-79
2022/12/21 01:46:30;;;;;;;9.35;3.83;;;;;;;-2.31;88.29;95582.13;5023302;28;20694;-80
2022/12/21 01:49:08;;;;;;;4.18;2.88;;;;;;;-2.22;87.91;95574.69;5024275;28;20258;-79
2022/12/21 01:51:38;;;;;;;10.05;3.60;;;;;;;-2.15;87.49;95568.25;5017930;28;20193;-80
2022/12/21 01:54:11;;;;;;;5.97;2.50;;;;;;;-2.22;87.21;95564.06;5027796;28;20666;-80
2022/12/21 01:56:40;;;;;;;6.53;1.88;;;;;;;-2.31;87.07;95557.44;5035546;28;20196;-81
2022/12/21 01:59:13;;;;;;;10.15;4.38;;;;;;;-2.41;87.45;95555.31;5043747;28;20342;-81
2022/12/21 02:01:40;;;;;;;3.00;2.35;;;;;;;-2.36;87.94;95552.81;5029053;28;20255;-81
2022/12/21 02:04:08;;;;;;;10.52;3.38;;;;;;;-2.36;87.43;95558.13;5016209;28;20705;-81
2022/12/21 02:06:42;;;;;;;38.72;4.03;;;;;;;-2.36;87.37;95542.22;5015320;28;20200;-81
2022/12/21 02:09:09;;;;;;;10.13;2.83;;;;;;;-2.26;88.73;95553.09;5018090;28;20671;-80
2022/12/21 02:11:35;;;;;;;4.75;2.42;;;;;;;-2.24;88.48;95540.41;5016914;28;20255;-80
2022/12/21 02:14:02;;;;;;;5.32;3.05;;;;;;;-2.25;88.74;95544.09;5021929;28;20258;-80
2022/12/21 02:16:37;;;;;;;6.95;3.22;;;;;;;-2.22;88.22;95554.25;5010904;28;20223;-80
2022/12/21 02:19:29;;;;;;;3.88;3.50;;;;;;;-2.27;88.36;95556.78;5021284;28;20196;-79
2022/12/21 02:22:00;;;;;;;9.05;4.35;;;;;;;-2.36;87.97;95552.81;5022830;28;20710;-80
2022/12/21 02:25:00;;;;;;;8.57;3.42;;;;;;;-2.33;88.00;95539.13;5023172;28;20224;-80
2022/12/21 02:27:54;;;;;;;4.35;2.80;;;;;;;-2.43;88.05;95538.00;5015463;28;20257;-80
2022/12/21 02:30:23;;;;;;;26.10;12.90;;;;;;;-2.48;88.35;95541.34;5010537;28;20210;-80
2022/12/21 02:33:31;;;;;;;25.05;12.00;;;;;;;-2.43;87.95;95538.00;5025294;28;20204;-80
2022/12/21 02:36:13;;;;;;;29.52;12.77;;;;;;;-2.62;88.34;95542.53;4947900;29;20637;-81
2022/12/21 02:38:48;;;;;;;24.30;11.45;;;;;;;-2.53;87.98;95535.91;5014584;28;20229;-79
2022/12/21 02:41:28;;;;;;;5.78;2.63;;;;;;;-2.46;87.79;95539.25;5012311;28;20224;-80
2022/12/21 02:44:13;;;;;;;27.58;12.40;;;;;;;-2.51;87.90;95539.94;5022794;28;20702;-81
2022/12/21 02:46:46;;;;;;;24.27;11.70;;;;;;;-2.51;88.21;95541.78;5019177;28;20196;-81
2022/12/21 02:49:23;;;;;;;23.63;11.80;;;;;;;-2.52;88.24;95548.94;5029629;28;20198;-81
2022/12/21 02:51:56;;;;;;;28.25;12.77;;;;;;;-2.63;88.89;95543.56;5029900;28;20259;-80
2022/12/21 02:54:24;;;;;;;22.23;10.98;;;;;;;-2.60;88.85;95540.50;5016576;28;20192;-80
2022/12/21 02:56:51;;;;;;;23.58;11.75;;;;;;;-2.41;88.87;95531.44;5036744;28;20200;-80
2022/12/21 02:59:22;;;;;;;23.33;12.90;;;;;;;-2.30;89.11;95524.56;5030047;28;20200;-81
2022/12/21 03:02:24;;;;;;;24.70;12.65;;;;;;;-2.19;88.38;95535.22;5017944;28;20675;-80
2022/12/21 03:05:12;;;;;;;5.70;3.30;;;;;;;-2.45;88.06;95532.91;5020104;28;20628;-80
2022/12/21 03:07:51;;;;;;;1.70;1.60;;;;;;;-2.52;88.28;95526.91;5022433;28;20284;-80
2022/12/21 03:10:28;;;;;;;5.38;4.05;;;;;;;-2.60;88.69;95522.72;5028273;28;20686;-81
2022/12/21 03:13:04;;;;;;;3.72;2.03;;;;;;;-2.59;88.34;95528.81;5025659;28;20211;-80
2022/12/21 03:15:40;;;;;;;6.80;3.50;;;;;;;-2.66;88.82;95526.25;5013045;28;20231;-81
2022/12/21 03:18:17;;;;;;;3.15;2.83;;;;;;;-2.60;88.44;95521.91;5028753;28;20200;-81
2022/12/21 03:20:56;;;;;;;8.77;3.50;;;;;;;-2.48;88.06;95522.78;5032758;28;20635;-80
2022/12/21 03:23:30;;;;;;;2.80;1.90;;;;;;;-2.56;88.57;95517.78;5019465;28;20192;-80
2022/12/21 03:26:05;;;;;;;4.63;1.92;;;;;;;-2.61;88.82;95505.19;5020892;28;20231;-80
2022/12/21 03:28:36;;;;;;;7.93;2.25;;;;;;;-2.59;88.98;95505.75;5022913;28;20299;-80
2022/12/21 03:31:08;;;;;;;3.45;2.45;;;;;;;-2.53;89.00;95499.56;5026167;28;20197;-80
2022/12/21 03:33:39;;;;;;;4.22;1.67;;;;;;;-2.57;89.25;95502.88;5028660;28;20193;-80
2022/12/21 03:36:14;;;;;;;4.97;2.83;;;;;;;-2.52;88.81;95495.91;5027777;28;21464;-80
2022/12/21 03:38:45;;;;;;;4.22;2.47;;;;;;;-2.62;88.53;95489.50;5013528;28;20200;-80
2022/12/21 03:41:17;;;;;;;23.25;10.73;;;;;;;-2.54;88.39;95481.22;5025902;28;20209;-80
2022/12/21 03:43:46;;;;;;;23.90;11.90;;;;;;;-2.59;88.40;95481.09;5012921;28;20299;-80
2022/12/21 03:46:16;;;;;;;24.42;12.18;;;;;;;-2.67;89.68;95476.09;5018060;28;20220;-79
2022/12/21 03:48:51;;;;;;;25.17;11.25;;;;;;;-2.59;88.84;95483.72;5019371;28;20280;-80
2022/12/21 03:51:26;;;;;;;25.95;11.38;;;;;;;-2.42;88.80;95474.13;5031746;28;20196;-79
2022/12/21 03:54:00;;;;;;;23.58;11.57;;;;;;;-2.55;89.58;95467.16;5031894;28;20253;-80
2022/12/21 03:56:33;;;;;;;7.28;4.28;;;;;;;-2.55;89.99;95471.66;5029680;28;20188;-80
2022/12/21 03:59:01;;;;;;;3.67;2.20;;;;;;;-2.69;90.01;95468.38;5033966;28;20200;-79
2022/12/21 04:01:39;;;;;;;22.15;10.90;;;;;;;-2.52;90.08;95469.38;5020456;28;20698;-80
2022/12/21 04:04:13;;;;;;;20.52;10.85;;;;;;;-2.62;89.80;95465.66;5031362;28;20216;-80
2022/12/21 04:06:43;;;;;;;24.90;11.63;;;;;;;-2.57;90.84;95471.06;5031492;28;20215;-80
2022/12/21 04:09:11;;;;;;;24.60;12.43;;;;;;;-2.88;90.32;95470.25;5019673;28;20235;-79
2022/12/21 04:14:23;;;;;;;29.95;14.23;;;;;;;-2.76;90.93;95462.38;5021709;28;20262;-79
2022/12/21 04:16:50;;;;;;;5.55;2.72;;;;;;;-2.65;89.96;95468.75;5018048;28;21003;-79
2022/12/21 04:22:02;;;;;;;28.00;11.93;;;;;;;-2.56;88.01;95467.38;5012098;28;20278;-80
2022/12/21 04:29:56;;;;;;;21.67;10.55;;;;;;;-2.64;88.64;95465.06;5018195;28;20200;-81
2022/12/21 04:32:23;;;;;;;37.85;16.17;;;;;;;-2.65;88.22;95452.84;5019274;28;20919;-79
2022/12/21 04:34:50;;;;;;;25.60;12.30;;;;;;;-2.80;88.02;95449.75;5028348;28;20205;-80
2022/12/21 04:39:59;;;;;;;21.70;11.20;;;;;;;-2.73;87.82;95445.97;5016922;28;20200;-81
2022/12/21 04:42:26;;;;;;;28.40;12.50;;;;;;;-2.75;87.76;95436.66;5029524;28;20204;-80
2022/12/21 04:44:53;;;;;;;22.55;11.75;;;;;;;-2.83;88.51;95447.56;5019244;28;20236;-80
2022/12/21 04:47:20;;;;;;;4.55;3.13;;;;;;;-2.82;89.23;95447.34;5026560;28;20639;-79
2022/12/21 04:49:47;;;;;;;5.70;3.45;;;;;;;-2.87;89.75;95444.56;5031100;28;20204;-80
2022/12/21 04:52:13;;;;;;;7.97;3.35;;;;;;;-2.81;90.37;95442.84;5030668;28;20201;-81
2022/12/21 04:54:44;;;;;;;3.58;2.78;;;;;;;-2.76;90.69;95441.16;5022131;28;20205;-80
2022/12/21 04:57:11;;;;;;;2.40;1.95;;;;;;;-2.74;90.37;95432.97;5033815;28;20204;-80
2022/12/21 04:59:38;;;;;;;6.80;2.45;;;;;;;-2.92;89.59;95441.78;5030768;28;20204;-80
2022/12/21 05:02:04;;;;;;;3.55;2.17;;;;;;;-3.06;89.37;95441.13;5017114;28;20200;-82
2022/12/21 05:04:31;;;;;;;25.38;11.27;;;;;;;-2.84;89.59;95440.63;5029245;28;20232;-79
2022/12/21 05:06:58;;;;;;;21.38;10.73;;;;;;;-2.90;88.61;95445.81;5030369;28;20197;-79
2022/12/21 05:09:25;;;;;;;6.13;2.88;;;;;;;-2.94;89.20;95439.34;5030453;28;20310;-81
2022/12/21 05:11:54;;;;;;;6.70;2.97;;;;;;;-3.00;88.48;95445.50;5029981;28;20212;-80
2022/12/21 05:14:21;;;;;;;6.20;4.43;;;;;;;-2.97;88.86;95447.72;5011243;28;20263;-80
2022/12/21 05:16:48;;;;;;;4.38;2.83;;;;;;;-2.91;88.76;95446.84;5028469;28;20204;-79
2022/12/21 05:19:15;;;;;;;3.78;3.15;;;;;;;-3.10;89.76;95452.38;5019496;28;20515;-79
2022/12/21 05:21:42;;;;;;;6.13;3.35;;;;;;;-2.84;89.31;95449.41;5024566;28;20362;-79
2022/12/21 05:24:09;;;;;;;3.22;2.22;;;;;;;-2.75;88.90;95447.25;5022569;28;20215;-80
2022/12/21 05:26:36;;;;;;;4.18;2.40;;;;;;;-2.73;88.75;95439.91;5017093;28;20748;-80
2022/12/21 05:29:04;;;;;;;2.72;2.28;;;;;;;-2.70;89.53;95442.06;5031259;28;20212;-79
2022/12/21 05:31:33;;;;;;;6.38;1.90;;;;;;;-2.72;89.63;95438.84;5017409;28;20258;-80
2022/12/21 05:34:00;;;;;;;7.63;3.53;;;;;;;-2.51;90.08;95438.34;5018345;28;20672;-81
2022/12/21 05:36:29;;;;;;;3.10;2.47;;;;;;;-2.47;90.14;95434.22;5023988;28;20209;-80
2022/12/21 05:38:56;;;;;;;7.30;3.25;;;;;;;-2.44;90.06;95443.53;5023017;28;20208;-80
2022/12/21 05:41:23;;;;;;;5.60;3.47;;;;;;;-2.32;89.77;95437.25;5017524;28;20200;-80
2022/12/21 05:43:50;;;;;;;3.35;3.05;;;;;;;-2.45;89.37;95426.81;5017593;28;20712;-80
2022/12/21 05:46:18;;;;;;;4.65;3.33;;;;;;;-2.57;89.14;95440.06;5024213;28;20236;-80
2022/12/21 05:48:45;;;;;;;8.10;4.47;;;;;;;-2.65;89.01;95442.22;5024380;28;20265;-80
2022/12/21 05:51:14;;;;;;;3.55;1.77;;;;;;;-2.59;89.28;95441.31;5030765;28;20281;-79
2022/12/21 05:53:43;;;;;;;7.10;2.78;;;;;;;-2.70;89.56;95434.13;5029347;28;20282;-80
2022/12/21 05:56:10;;;;;;;6.38;2.70;;;;;;;-2.58;89.64;95442.94;5020583;28;20207;-80
2022/12/21 05:58:37;;;;;;;2.95;2.75;;;;;;;-2.57;88.81;95441.91;5035356;28;20207;-79
2022/12/21 06:01:06;;;;;;;4.57;3.22;;;;;;;-2.51;88.00;95435.69;5021612;28;20545;-82
2022/12/21 06:03:35;;;;;;;9.00;4.80;;;;;;;-2.56;88.09;95431.06;5024010;28;20200;-80
2022/12/21 06:06:04;;;;;;;6.25;3.05;;;;;;;-0.24;100.00;95428.34;5020302;28;20232;-84
2022/12/21 06:08:31;;;;;;;6.30;3.60;;;;;;;1.52;100.00;95414.25;5017780;28;20295;-84
2022/12/21 06:11:04;;;;;;;9.70;5.80;;;;;;;2.02;100.00;95404.06;5022644;28;20200;-84
2022/12/21 06:13:31;;;;;;;4.57;2.97;;;;;;;2.21;100.00;95411.66;5032876;28;20202;-82
2022/12/21 06:16:02;;;;;;;6.93;3.67;;;;;;;1.84;100.00;95417.78;5023291;28;20286;-78
2022/12/21 06:18:29;;;;;;;3.67;2.30;;;;;;;0.25;95.59;95415.31;5013251;28;20200;-81
2022/12/21 06:20:57;;;;;;;6.38;3.88;;;;;;;-0.10;92.80;95407.56;5022360;28;20241;-85
2022/12/21 06:23:24;;;;;;;3.85;3.40;;;;;;;-0.37;90.36;95412.69;5017003;28;20208;-82
2022/12/21 06:25:56;;;;;;;6.03;3.83;;;;;;;-0.40;90.62;95418.47;5029535;28;20825;-81
2022/12/21 06:28:23;;;;;;;7.20;5.05;;;;;;;-0.68;89.24;95410.53;5016510;28;20196;-81
2022/12/21 06:30:51;;;;;;;9.18;3.00;;;;;;;-0.77;89.88;95413.56;5017740;28;20201;-81
2022/12/21 06:33:19;;;;;;;4.32;2.25;;;;;;;-1.07;89.08;95413.78;5024391;28;20287;-81
2022/12/21 06:35:54;;;;;;;6.78;3.08;;;;;;;-1.22;90.04;95410.81;5023642;28;20208;-81
2022/12/21 06:38:22;;;;;;;7.75;3.78;;;;;;;-1.27;90.40;95412.56;5023724;28;20609;-82
2022/12/21 06:40:54;;;;;;;7.20;2.65;;;;;;;-1.24;91.23;95412.13;5023622;28;20247;-82
2022/12/21 06:43:21;;;;;;;7.65;4.10;;;;;;;-1.16;91.35;95409.88;5027021;28;20303;-82
2022/12/21 06:45:54;;;;;;;20.88;5.05;;;;;;;-1.00;91.69;95411.00;5026175;28;20312;-82
2022/12/21 06:48:21;;;;;;;4.43;2.85;;;;;;;-0.87;89.12;95418.69;5022390;28;20190;-82
2022/12/21 06:50:52;;;;;;;5.75;3.92;;;;;;;-0.96;87.96;95419.31;5023510;28;20208;-82
2022/12/21 06:53:19;;;;;;;3.88;2.70;;;;;;;-1.13;87.35;95425.38;5024770;28;20316;-80
2022/12/21 06:55:47;;;;;;;1.92;1.83;;;;;;;-1.37;86.22;95429.13;5031682;28;20204;-82
2022/12/21 06:58:14;;;;;;;2.42;2.05;;;;;;;-1.60;86.94;95429.94;5041294;28;20525;-82
2022/12/21 07:00:41;;;;;;;3.70;2.00;;;;;;;-1.76;87.11;95432.47;5033153;28;20210;-82
2022/12/21 07:03:08;;;;;;;4.90;2.75;;;;;;;-1.69;87.06;95425.19;5020816;28;20204;-81
2022/12/21 07:05:35;;;;;;;17.25;4.07;;;;;;;-1.65;88.13;95429.84;5026878;28;20738;-81
2022/12/21 07:08:01;;;;;;;3.28;2.95;;;;;;;-1.46;86.41;95431.31;5026761;28;20593;-81
2022/12/21 07:10:28;;;;;;;5.25;3.13;;;;;;;-1.36;87.31;95435.22;5028797;28;20205;-84
2022/12/21 07:12:56;;;;;;;3.42;2.80;;;;;;;-1.17;86.85;95439.34;5026451;28;20270;-82
2022/12/21 07:15:23;;;;;;;0.93;0.93;;;;;;;-1.24;86.17;95438.69;5019254;28;20232;-81
2022/12/21 07:17:50;;;;;;;2.65;1.33;;;;;;;-1.38;86.18;95448.75;5020665;28;20205;-81
2022/12/21 07:20:16;;;;;;;7.88;3.45;;;;;;;-1.48;85.98;95444.00;5029196;28;20566;-82
2022/12/21 07:22:43;;;;;;;7.95;4.07;;;;;;;-1.35;86.58;95447.47;5027155;28;20201;-81
2022/12/21 07:25:10;;;;;;;7.57;3.45;;;;;;;-1.05;86.24;95445.44;5020283;28;20204;-82
2022/12/21 07:27:37;;;;;;;3.10;2.85;;;;;;;-0.81;84.30;95444.34;5026362;28;20196;-81
2022/12/21 07:30:06;;;;;;;10.90;4.05;;;;;;;-0.60;83.79;95439.41;5033193;28;20258;-81
2022/12/21 07:32:33;;;;;;;9.88;3.85;;;;;;;-0.39;82.63;95441.41;5019183;28;20212;-80
2022/12/21 07:35:01;;;;;;;4.80;3.30;;;;;;;-0.34;82.13;95428.19;5032648;28;20204;-81
2022/12/21 07:37:28;;;;;;;5.35;2.95;;;;;;;-0.35;82.49;95426.56;5018365;28;20201;-81
2022/12/21 07:39:55;;;;;;;7.80;4.22;;;;;;;-0.19;81.20;95425.78;5021281;28;20613;-82
2022/12/21 07:42:22;;;;;;;10.25;5.22;;;;;;;-0.31;82.76;95425.06;5019069;28;20278;-80
2022/12/21 07:44:49;;;;;;;9.60;3.45;;;;;;;-0.19;82.19;95428.47;5025383;28;20205;-81
2022/12/21 07:47:19;;;;;;;14.45;4.30;;;;;;;0.02;80.71;95420.78;5024878;28;20240;-83
2022/12/21 07:49:46;;;;;;;8.57;3.17;;;;;;;0.13;79.72;95418.06;5020529;28;20200;-80
2022/12/21 07:52:12;;;;;;;6.45;2.72;;;;;;;-0.05;76.45;95416.44;5030770;28;20208;-79
2022/12/21 07:54:39;;;;;;;4.70;1.60;;;;;;;-0.44;77.03;95420.03;5030722;28;20619;-81
2022/12/21 07:57:06;;;;;;;2.65;1.45;;;;;;;-0.60;77.51;95418.13;5040645;28;20204;-81
2022/12/21 07:59:32;;;;;;;2.88;1.83;;;;;;;-0.58;78.32;95426.69;5033383;28;20274;-82
2022/12/21 08:02:00;;;;;;;4.32;2.38;;;;;;;-0.20;78.55;95420.69;5033076;28;20219;-82
2022/12/21 08:04:28;;;;;;;1.92;1.67;;;;;;;0.03;78.13;95417.88;5024653;28;20216;-82
2022/12/21 08:06:54;;;;;;;2.42;1.85;;;;;;;0.31;77.49;95414.31;5017861;28;20282;-81
2022/12/21 08:09:21;;;;;;;1.73;1.42;;;;;;;0.67;74.95;95421.78;5033543;28;20240;-82
2022/12/21 08:11:48;;;;;;;2.50;1.42;;;;;;;0.64;74.77;95416.94;5021045;28;20213;-82
2022/12/21 08:14:15;;;;;;;2.00;1.67;;;;;;;0.74;73.61;95420.78;5025832;28;20304;-81
2022/12/21 08:16:42;;;;;;;10.95;3.53;;;;;;;0.45;73.66;95415.59;5028770;28;20281;-81
2022/12/21 08:19:08;;;;;;;5.78;2.53;;;;;;;0.77;74.12;95418.44;5022530;28;20558;-81
2022/12/21 08:21:36;;;;;;;7.38;3.58;;;;;;;1.03;72.72;95407.03;5025957;28;20205;-81
2022/12/21 08:24:03;;;;;;;1.05;0.90;;;;;;;1.04;72.46;95403.31;5013439;28;20208;-80
2022/12/21 08:26:37;;;;;;;4.70;2.55;;;;;;;0.96;74.07;95389.59;5025502;28;20232;-80
2022/12/21 08:29:05;;;;;;;5.90;3.25;;;;;;;1.38;72.56;95395.16;5023957;28;20192;-80
2022/12/21 08:31:32;;;;;;;9.82;4.25;;;;;;;0.74;72.42;95396.81;5017876;28;20200;-79
2022/12/21 08:33:59;;;;;;;6.72;2.65;;;;;;;0.92;74.74;95383.16;5020087;28;20224;-80
2022/12/21 08:36:26;;;;;;;10.68;3.25;;;;;;;1.26;74.59;95379.28;5029245;28;20740;-80
2022/12/21 08:38:56;;;;;;;2.55;2.25;;;;;;;1.20;72.21;95380.31;5031386;28;20262;-78
2022/12/21 08:41:24;;;;;;;3.33;2.22;;;;;;;0.93;73.34;95380.25;5012042;28;20695;-79
2022/12/21 08:43:51;;;;;;;6.00;3.30;;;;;;;0.95;73.70;95374.69;5024978;28;20292;-79
2022/12/21 08:46:18;;;;;;;3.90;1.90;;;;;;;1.07;73.67;95364.69;5018746;28;20698;-81
2022/12/21 08:48:46;;;;;;;9.82;3.83;;;;;;;1.00;73.75;95364.84;5018960;28;20255;-80
2022/12/21 08:51:12;;;;;;;7.35;2.80;;;;;;;0.96;74.02;95349.59;5033254;28;20201;-80
2022/12/21 08:53:41;;;;;;;3.10;1.95;;;;;;;1.28;75.00;95355.03;5032028;28;20201;-80
2022/12/21 08:56:12;;;;;;;2.47;2.13;;;;;;;1.46;73.08;95345.88;5019859;28;20219;-80
2022/12/21 08:58:38;;;;;;;2.30;2.10;;;;;;;1.41;72.06;95350.09;5018486;28;20287;-80
2022/12/21 09:01:05;;;;;;;3.72;1.80;;;;;;;1.63;73.08;95346.56;5022785;28;20209;-79
2022/12/21 09:03:32;;;;;;;7.50;3.22;;;;;;;1.70;72.70;95341.81;5026337;28;20255;-80
2022/12/21 09:06:02;;;;;;;26.13;3.25;;;;;;;1.86;72.59;95334.72;5023675;28;20367;-80
2022/12/21 09:08:29;;;;;;;5.65;3.10;;;;;;;1.89;73.61;95331.56;5024861;28;20330;-80
2022/12/21 09:11:00;;;;;;;1.13;1.02;;;;;;;1.72;73.11;95334.34;5020609;28;20209;-79
2022/12/21 09:13:28;;;;;;;3.53;2.90;;;;;;;1.71;73.58;95327.41;5031143;28;20298;-79
2022/12/21 09:15:55;;;;;;;5.53;2.88;;;;;;;1.56;74.14;95328.06;5021603;28;20205;-80
2022/12/21 09:18:22;;;;;;;4.32;2.00;;;;;;;1.51;73.57;95327.22;5024651;28;20205;-79
2022/12/21 09:20:48;;;;;;;6.40;4.07;;;;;;;1.88;74.59;95317.38;5011211;28;20235;-79
2022/12/21 09:23:15;;;;;;;6.45;3.53;;;;;;;2.25;71.97;95311.22;5024452;28;20205;-79
2022/12/21 09:25:47;;;;;;;7.13;2.17;;;;;;;2.55;70.65;95307.91;5021795;28;20204;-78
2022/12/21 09:28:14;;;;;;;5.97;3.42;;;;;;;2.79;70.17;95291.16;5017979;28;20270;-80
2022/12/21 09:30:42;;;;;;;7.50;3.35;;;;;;;2.58;70.13;95286.81;5020360;28;20205;-79
2022/12/21 09:33:09;;;;;;;7.93;3.50;;;;;;;2.49;68.83;95285.66;5023567;28;20268;-79
2022/12/21 09:35:39;;;;;;;11.48;4.05;;;;;;;2.33;68.80;95275.97;5022262;28;20200;-80
2022/12/21 09:38:06;;;;;;;6.07;2.45;;;;;;;2.16;69.95;95270.81;5030318;28;20215;-80
2022/12/21 09:40:37;;;;;;;8.75;4.68;;;;;;;2.37;70.20;95267.19;5018957;28;20271;-81
2022/12/21 09:43:13;;;;;;;6.15;3.10;;;;;;;2.39;68.95;95265.06;5030814;28;20307;-81
2022/12/21 09:45:52;;;;;;;6.57;3.85;;;;;;;2.20;69.10;95266.53;5016527;28;20954;-80
2022/12/21 09:48:23;;;;;;;4.00;2.67;;;;;;;2.39;67.95;95265.06;5010722;28;20702;-81
2022/12/21 09:50:56;;;;;;;8.38;5.00;;;;;;;2.41;68.80;95256.78;5023868;28;20201;-81
2022/12/21 09:53:28;;;;;;;5.78;3.17;;;;;;;2.52;69.30;95255.75;5021813;28;20200;-80
2022/12/21 09:55:58;;;;;;;6.93;3.30;;;;;;;2.87;68.62;95248.91;5024900;28;20229;-81
2022/12/21 09:58:34;;;;;;;9.15;2.92;;;;;;;3.19;68.08;95247.63;5024334;28;20648;-81
2022/12/21 10:01:16;;;;;;;4.32;2.67;;;;;;;3.43;66.42;95237.19;5019112;28;20651;-80
2022/12/21 10:03:58;;;;;;;6.90;4.30;;;;;;;3.13;66.76;95237.19;5030690;28;20204;-80
2022/12/21 10:06:36;;;;;;;6.47;3.90;;;;;;;3.17;67.41;95227.53;5030643;28;20216;-80
2022/12/21 10:09:15;;;;;;;15.63;4.30;;;;;;;3.05;66.34;95229.66;5020306;28;20228;-80
2022/12/21 10:11:55;;;;;;;9.13;3.15;;;;;;;3.00;65.79;95232.34;5030367;28;20192;-81
2022/12/21 10:14:31;;;;;;;3.50;2.22;;;;;;;3.03;65.73;95221.09;5020204;28;20224;-81
2022/12/21 10:17:09;;;;;;;8.82;4.45;;;;;;;3.25;67.07;95223.56;5024716;28;20205;-81
2022/12/21 10:19:51;;;;;;;9.25;5.43;;;;;;;3.63;65.10;95203.47;5024799;28;20484;-81
2022/12/21 10:22:24;;;;;;;8.48;5.38;;;;;;;3.72;65.65;95201.84;5020990;28;20203;-80
2022/12/21 10:24:54;;;;;;;16.10;4.75;;;;;;;3.89;64.15;95191.63;5018923;28;20196;-81
2022/12/21 10:27:30;;;;;;;8.23;3.08;;;;;;;3.69;64.48;95180.97;5032655;28;20224;-81
2022/12/21 10:29:59;;;;;;;11.00;5.50;;;;;;;3.72;65.78;95180.41;5018671;28;20192;-82
2022/12/21 10:32:32;;;;;;;8.52;4.28;;;;;;;3.84;64.05;95186.25;5032316;28;20200;-82
2022/12/21 10:35:17;;;;;;;14.57;5.82;;;;;;;3.86;65.25;95181.44;5011737;28;20212;-81
2022/12/21 10:37:47;;;;;;;11.30;5.15;;;;;;;3.86;64.13;95173.41;5025411;28;20247;-81
2022/12/21 10:40:14;;;;;;;15.75;6.10;;;;;;;3.93;64.13;95176.63;5010809;28;20193;-79
2022/12/21 10:42:54;;;;;;;13.18;6.80;;;;;;;3.69;65.11;95180.97;5027337;28;20260;-81
2022/12/21 10:45:24;;;;;;;10.23;5.93;;;;;;;3.70;64.87;95171.81;5023424;28;20203;-80
2022/12/21 10:47:53;;;;;;;16.02;6.00;;;;;;;3.67;64.63;95172.38;5018123;28;20224;-81
2022/12/21 10:50:25;;;;;;;6.93;3.28;;;;;;;3.79;64.45;95159.50;5019013;28;20741;-82
2022/12/21 10:52:53;;;;;;;12.52;5.20;;;;;;;3.86;64.14;95165.38;5024167;28;20532;-82
2022/12/21 10:55:32;;;;;;;6.75;3.58;;;;;;;3.82;64.77;95158.97;5024406;28;20197;-80
2022/12/21 10:58:06;;;;;;;14.35;5.93;;;;;;;4.03;65.18;95155.13;5035416;28;20192;-81
2022/12/21 11:00:36;;;;;;;7.82;5.03;;;;;;;4.27;63.33;95156.13;5026563;28;20259;-80
2022/12/21 11:03:06;;;;;;;13.68;6.22;;;;;;;4.29;63.31;95153.97;5021793;28;20632;-81
2022/12/21 11:05:35;;;;;;;10.13;4.82;;;;;;;4.29;63.28;95153.97;5013395;28;20522;-82
2022/12/21 11:08:16;;;;;;;6.88;5.22;;;;;;;4.46;62.69;95147.47;5022679;28;20236;-82
2022/12/21 11:10:45;;;;;;;28.05;4.90;;;;;;;4.52;61.66;95135.59;5018352;28;20247;-81
2022/12/21 11:13:13;;;;;;;15.82;7.65;;;;;;;4.38;63.23;95134.59;5029966;28;20220;-80
2022/12/21 11:15:52;;;;;;;17.42;7.35;;;;;;;4.38;62.86;95123.88;5030614;28;20307;-82
2022/12/21 11:18:28;;;;;;;8.65;4.28;;;;;;;4.55;62.55;95135.06;5014990;28;20209;-81
2022/12/21 11:20:55;;;;;;;14.93;6.22;;;;;;;4.34;61.91;95122.84;5010456;28;20260;-81
2022/12/21 11:23:22;;;;;;;14.15;5.63;;;;;;;4.47;63.09;95106.16;5016269;28;20204;-82
2022/12/21 11:25:49;;;;;;;16.80;6.50;;;;;;;4.70;61.61;95116.19;5022984;28;20243;-81
2022/12/21 11:28:21;;;;;;;13.35;7.30;;;;;;;4.53;61.61;95113.88;5027803;28;20232;-82
2022/12/21 11:30:52;;;;;;;12.57;5.63;;;;;;;4.53;61.47;95100.44;5025450;28;20258;-82
2022/12/21 11:33:25;;;;;;;16.88;7.70;;;;;;;4.44;61.33;95112.06;5028823;28;20197;-81
2022/12/21 11:36:09;;;;;;;16.38;7.68;;;;;;;4.54;61.17;95103.94;5026756;28;20196;-81
2022/12/21 11:38:39;;;;;;;7.70;4.68;;;;;;;4.55;61.59;95101.00;5021905;28;20203;-81
2022/12/21 11:41:15;;;;;;;14.85;5.28;;;;;;;4.70;61.70;95104.66;5034876;28;20224;-81
2022/12/21 11:43:48;;;;;;;12.55;6.53;;;;;;;4.65;60.91;95100.09;5035193;28;20287;-82
2022/12/21 11:46:27;;;;;;;10.05;5.30;;;;;;;4.76;60.75;95096.31;5017229;28;20209;-81
2022/12/21 11:49:12;;;;;;;8.35;4.43;;;;;;;4.91;60.25;95079.28;5026781;28;20667;-80
2022/12/21 11:51:48;;;;;;;9.63;5.78;;;;;;;4.67;60.22;95076.50;5026787;28;20655;-79
2022/12/21 11:54:37;;;;;;;8.43;4.28;;;;;;;4.66;60.71;95072.19;5022920;28;20188;-81
2022/12/21 11:57:22;;;;;;;7.70;3.05;;;;;;;4.76;60.47;95069.47;5036781;28;20188;-82
2022/12/21 12:00:01;;;;;;;12.32;5.63;;;;;;;4.80;60.56;95070.50;5035005;28;20192;-81